sensor_id;sensor_type;location;lat;lon;timestamp;pressure;altitude;pressure_sealevel;temperature;humidity
12471;BME280;36499;46.484;13.832;2023-09-18T00:00:25;93425.56;;;16.32;89.25
12471;BME280;36499;46.484;13.832;2023-09-18T00:02:52;93426.91;;;16.18;88.64
12471;BME280;36499;46.484;13.832;2023-09-18T00:05:19;93429.44;;;16.13;88.24
12471;BME280;36499;46.484;13.832;2023-09-18T00:07:46;93428.91;;;16.11;88.18
12471;BME280;36499;46.484;13.832;2023-09-18T00:10:15;93423.56;;;16.06;88.83
12471;BME280;36499;46.484;13.832;2023-09-18T00:12:42;93417.97;;;16.03;88.76
12471;BME280;36499;46.484;13.832;2023-09-18T00:15:10;93408.97;;;15.99;88.37
12471;BME280;36499;46.484;13.832;2023-09-18T00:17:37;93411.84;;;15.97;88.60
12471;BME280;36499;46.484;13.832;2023-09-18T00:20:06;93404.97;;;15.96;88.66
12471;BME280;36499;46.484;13.832;2023-09-18T00:22:33;93418.44;;;16.00;89.32
12471;BME280;36499;46.484;13.832;2023-09-18T00:25:00;93405.06;;;16.01;90.53
12471;BME280;36499;46.484;13.832;2023-09-18T00:27:29;93398.75;;;16.02;90.29
12471;BME280;36499;46.484;13.832;2023-09-18T00:29:58;93411.38;;;16.00;90.19
12471;BME280;36499;46.484;13.832;2023-09-18T00:32:25;93405.78;;;15.97;90.67
12471;BME280;36499;46.484;13.832;2023-09-18T00:34:52;93403.38;;;15.95;90.05
12471;BME280;36499;46.484;13.832;2023-09-18T00:37:19;93409.28;;;15.86;89.15
12471;BME280;36499;46.484;13.832;2023-09-18T00:39:46;93406.97;;;15.89;89.46
12471;BME280;36499;46.484;13.832;2023-09-18T00:42:13;93399.56;;;15.86;90.04
12471;BME280;36499;46.484;13.832;2023-09-18T00:44:43;93395.69;;;15.77;91.70
12471;BME280;36499;46.484;13.832;2023-09-18T00:47:12;93393.63;;;15.79;91.64
12471;BME280;36499;46.484;13.832;2023-09-18T00:49:44;93385.72;;;15.79;91.00
12471;BME280;36499;46.484;13.832;2023-09-18T00:52:15;93381.53;;;15.78;90.96
12471;BME280;36499;46.484;13.832;2023-09-18T00:54:43;93374.19;;;15.80;91.15
12471;BME280;36499;46.484;13.832;2023-09-18T00:57:12;93370.31;;;15.82;91.28
12471;BME280;36499;46.484;13.832;2023-09-18T00:59:39;93362.88;;;15.79;90.39
12471;BME280;36499;46.484;13.832;2023-09-18T01:02:08;93356.16;;;15.72;89.03
12471;BME280;36499;46.484;13.832;2023-09-18T01:04:37;93362.22;;;15.72;88.78
12471;BME280;36499;46.484;13.832;2023-09-18T01:07:04;93357.22;;;15.71;90.05
12471;BME280;36499;46.484;13.832;2023-09-18T01:09:32;93355.84;;;15.68;91.77
12471;BME280;36499;46.484;13.832;2023-09-18T01:12:09;93348.28;;;15.72;92.26
12471;BME280;36499;46.484;13.832;2023-09-18T01:14:46;93348.06;;;15.73;92.52
12471;BME280;36499;46.484;13.832;2023-09-18T01:17:19;93351.88;;;15.66;92.10
12471;BME280;36499;46.484;13.832;2023-09-18T01:19:47;93347.97;;;15.68;92.05
12471;BME280;36499;46.484;13.832;2023-09-18T01:22:16;93342.72;;;15.68;92.41
12471;BME280;36499;46.484;13.832;2023-09-18T01:24:47;93342.47;;;15.70;93.18
12471;BME280;36499;46.484;13.832;2023-09-18T01:27:16;93349.88;;;15.73;92.03
12471;BME280;36499;46.484;13.832;2023-09-18T01:29:43;93351.16;;;15.70;90.57
12471;BME280;36499;46.484;13.832;2023-09-18T01:32:11;93353.47;;;15.67;90.93
12471;BME280;36499;46.484;13.832;2023-09-18T01:34:42;93355.47;;;15.60;91.83
12471;BME280;36499;46.484;13.832;2023-09-18T01:37:11;93363.47;;;15.53;93.25
12471;BME280;36499;46.484;13.832;2023-09-18T01:39:39;93356.16;;;15.55;93.32
12471;BME280;36499;46.484;13.832;2023-09-18T01:42:09;93353.28;;;15.57;93.12
12471;BME280;36499;46.484;13.832;2023-09-18T01:44:37;93355.69;;;15.58;92.55
12471;BME280;36499;46.484;13.832;2023-09-18T01:47:07;93355.38;;;15.55;91.96
12471;BME280;36499;46.484;13.832;2023-09-18T01:49:36;93355.84;;;15.52;91.61
12471;BME280;36499;46.484;13.832;2023-09-18T01:52:05;93361.31;;;15.50;92.10
12471;BME280;36499;46.484;13.832;2023-09-18T01:54:34;93366.91;;;15.42;93.39
12471;BME280;36499;46.484;13.832;2023-09-18T01:57:01;93363.00;;;15.45;93.43
12471;BME280;36499;46.484;13.832;2023-09-18T01:59:30;93354.34;;;15.44;93.06
12471;BME280;36499;46.484;13.832;2023-09-18T02:01:57;93347.66;;;15.36;91.20
12471;BME280;36499;46.484;13.832;2023-09-18T02:04:24;93344.53;;;15.11;88.05
12471;BME280;36499;46.484;13.832;2023-09-18T02:06:51;93336.00;;;15.04;90.30
12471;BME280;36499;46.484;13.832;2023-09-18T02:09:18;93329.75;;;14.94;92.68
12471;BME280;36499;46.484;13.832;2023-09-18T02:11:47;93328.25;;;14.98;93.85
12471;BME280;36499;46.484;13.832;2023-09-18T02:14:14;93327.13;;;14.94;93.96
12471;BME280;36499;46.484;13.832;2023-09-18T02:16:43;93329.16;;;14.92;94.35
12471;BME280;36499;46.484;13.832;2023-09-18T02:19:12;93322.00;;;14.87;94.75
12471;BME280;36499;46.484;13.832;2023-09-18T02:21:40;93320.41;;;14.86;96.58
12471;BME280;36499;46.484;13.832;2023-09-18T02:24:07;93321.28;;;14.92;96.42
12471;BME280;36499;46.484;13.832;2023-09-18T02:26:35;93323.22;;;14.96;95.32
12471;BME280;36499;46.484;13.832;2023-09-18T02:29:05;93322.56;;;14.89;93.49
12471;BME280;36499;46.484;13.832;2023-09-18T02:31:33;93320.06;;;14.82;92.61
12471;BME280;36499;46.484;13.832;2023-09-18T02:34:01;93320.06;;;14.82;93.52
12471;BME280;36499;46.484;13.832;2023-09-18T02:36:29;93317.19;;;14.84;96.22
12471;BME280;36499;46.484;13.832;2023-09-18T02:38:56;93319.72;;;14.91;95.10
12471;BME280;36499;46.484;13.832;2023-09-18T02:41:23;93320.63;;;14.84;92.75
12471;BME280;36499;46.484;13.832;2023-09-18T02:43:50;93327.16;;;14.82;91.89
12471;BME280;36499;46.484;13.832;2023-09-18T02:46:18;93315.75;;;14.76;91.76
12471;BME280;36499;46.484;13.832;2023-09-18T02:48:45;93321.09;;;14.81;91.36
12471;BME280;36499;46.484;13.832;2023-09-18T02:51:13;93310.59;;;14.81;91.20
12471;BME280;36499;46.484;13.832;2023-09-18T02:53:40;93316.88;;;14.80;91.28
12471;BME280;36499;46.484;13.832;2023-09-18T02:56:07;93314.03;;;14.82;93.72
12471;BME280;36499;46.484;13.832;2023-09-18T02:58:34;93308.63;;;14.88;94.66
12471;BME280;36499;46.484;13.832;2023-09-18T03:01:02;93315.50;;;14.89;94.18
12471;BME280;36499;46.484;13.832;2023-09-18T03:03:31;93310.38;;;14.83;95.09
12471;BME280;36499;46.484;13.832;2023-09-18T03:06:02;93311.75;;;14.74;97.46
12471;BME280;36499;46.484;13.832;2023-09-18T03:08:31;93318.25;;;14.83;97.34
12471;BME280;36499;46.484;13.832;2023-09-18T03:10:58;93311.69;;;14.97;96.04
12471;BME280;36499;46.484;13.832;2023-09-18T03:13:27;93315.69;;;15.00;94.60
12471;BME280;36499;46.484;13.832;2023-09-18T03:15:55;93303.94;;;15.02;94.15
12471;BME280;36499;46.484;13.832;2023-09-18T03:18:22;93305.66;;;14.97;94.18
12471;BME280;36499;46.484;13.832;2023-09-18T03:20:49;93290.03;;;14.90;94.55
12471;BME280;36499;46.484;13.832;2023-09-18T03:23:16;93277.94;;;14.89;94.78
12471;BME280;36499;46.484;13.832;2023-09-18T03:25:45;93283.66;;;14.86;95.46
12471;BME280;36499;46.484;13.832;2023-09-18T03:28:12;93279.44;;;14.85;92.30
12471;BME280;36499;46.484;13.832;2023-09-18T03:30:39;93278.22;;;14.76;91.37
12471;BME280;36499;46.484;13.832;2023-09-18T03:33:06;93262.38;;;14.71;91.11
12471;BME280;36499;46.484;13.832;2023-09-18T03:35:46;93265.34;;;14.63;91.35
12471;BME280;36499;46.484;13.832;2023-09-18T03:38:14;93265.97;;;14.53;94.23
12471;BME280;36499;46.484;13.832;2023-09-18T03:40:42;93260.94;;;14.52;95.95
12471;BME280;36499;46.484;13.832;2023-09-18T03:43:11;93259.34;;;14.51;97.84
12471;BME280;36499;46.484;13.832;2023-09-18T03:45:38;93260.81;;;14.58;98.40
12471;BME280;36499;46.484;13.832;2023-09-18T03:48:06;93263.22;;;14.48;96.61
12471;BME280;36499;46.484;13.832;2023-09-18T03:50:33;93256.50;;;14.52;96.21
12471;BME280;36499;46.484;13.832;2023-09-18T03:53:00;93242.69;;;14.57;95.79
12471;BME280;36499;46.484;13.832;2023-09-18T03:55:27;93232.03;;;14.63;95.73
12471;BME280;36499;46.484;13.832;2023-09-18T03:57:55;93235.03;;;14.55;94.85
12471;BME280;36499;46.484;13.832;2023-09-18T04:00:24;93240.31;;;14.44;95.37
12471;BME280;36499;46.484;13.832;2023-09-18T04:02:51;93235.66;;;14.46;96.22
12471;BME280;36499;46.484;13.832;2023-09-18T04:05:18;93234.22;;;14.55;95.52
12471;BME280;36499;46.484;13.832;2023-09-18T04:07:45;93230.50;;;14.39;92.95
12471;BME280;36499;46.484;13.832;2023-09-18T04:10:13;93243.72;;;14.44;92.53
12471;BME280;36499;46.484;13.832;2023-09-18T04:12:45;93256.41;;;14.35;94.71
12471;BME280;36499;46.484;13.832;2023-09-18T04:15:14;93255.59;;;14.35;94.97
12471;BME280;36499;46.484;13.832;2023-09-18T04:17:44;93250.94;;;14.37;96.21
12471;BME280;36499;46.484;13.832;2023-09-18T04:20:11;93251.28;;;14.40;95.91
12471;BME280;36499;46.484;13.832;2023-09-18T04:22:45;93252.50;;;14.50;95.50
12471;BME280;36499;46.484;13.832;2023-09-18T04:25:15;93248.03;;;14.50;95.06
12471;BME280;36499;46.484;13.832;2023-09-18T04:27:44;93232.88;;;14.52;94.83
12471;BME280;36499;46.484;13.832;2023-09-18T04:30:11;93223.25;;;14.58;94.13
12471;BME280;36499;46.484;13.832;2023-09-18T04:32:40;93218.50;;;14.55;93.38
12471;BME280;36499;46.484;13.832;2023-09-18T04:35:10;93229.94;;;14.49;93.71
12471;BME280;36499;46.484;13.832;2023-09-18T04:37:38;93230.63;;;14.44;94.05
12471;BME280;36499;46.484;13.832;2023-09-18T04:40:07;93233.13;;;14.39;95.66
12471;BME280;36499;46.484;13.832;2023-09-18T04:42:38;93232.00;;;14.35;95.59
12471;BME280;36499;46.484;13.832;2023-09-18T04:45:06;93228.13;;;14.37;96.65
12471;BME280;36499;46.484;13.832;2023-09-18T04:47:34;93221.63;;;14.40;96.80
12471;BME280;36499;46.484;13.832;2023-09-18T04:50:01;93221.38;;;14.53;96.13
12471;BME280;36499;46.484;13.832;2023-09-18T04:52:37;93209.13;;;14.59;94.60
12471;BME280;36499;46.484;13.832;2023-09-18T04:55:06;93205.47;;;14.60;93.65
12471;BME280;36499;46.484;13.832;2023-09-18T04:57:33;93200.78;;;14.62;93.49
12471;BME280;36499;46.484;13.832;2023-09-18T05:00:00;93197.13;;;14.63;93.80
12471;BME280;36499;46.484;13.832;2023-09-18T05:02:28;93207.84;;;14.61;93.62
12471;BME280;36499;46.484;13.832;2023-09-18T05:04:56;93202.63;;;14.50;94.37
12471;BME280;36499;46.484;13.832;2023-09-18T05:07:23;93204.75;;;14.36;95.18
12471;BME280;36499;46.484;13.832;2023-09-18T05:09:52;93206.69;;;14.40;94.62
12471;BME280;36499;46.484;13.832;2023-09-18T05:12:19;93209.00;;;14.54;95.71
12471;BME280;36499;46.484;13.832;2023-09-18T05:14:46;93199.13;;;14.72;95.51
12471;BME280;36499;46.484;13.832;2023-09-18T05:17:15;93200.88;;;14.95;95.35
12471;BME280;36499;46.484;13.832;2023-09-18T05:19:43;93195.91;;;15.10;93.79
12471;BME280;36499;46.484;13.832;2023-09-18T05:22:11;93203.03;;;15.15;92.16
12471;BME280;36499;46.484;13.832;2023-09-18T05:24:39;93212.41;;;15.11;92.24
12471;BME280;36499;46.484;13.832;2023-09-18T05:27:07;93199.78;;;15.08;92.59
12471;BME280;36499;46.484;13.832;2023-09-18T05:29:34;93204.81;;;15.09;93.02
12471;BME280;36499;46.484;13.832;2023-09-18T05:32:03;93213.22;;;15.11;93.90
12471;BME280;36499;46.484;13.832;2023-09-18T05:34:30;93206.78;;;15.02;94.64
12471;BME280;36499;46.484;13.832;2023-09-18T05:36:58;93207.00;;;15.01;95.07
12471;BME280;36499;46.484;13.832;2023-09-18T05:39:25;93199.75;;;14.91;96.24
12471;BME280;36499;46.484;13.832;2023-09-18T05:41:52;93192.97;;;14.78;98.27
12471;BME280;36499;46.484;13.832;2023-09-18T05:44:20;93196.34;;;14.91;98.10
12471;BME280;36499;46.484;13.832;2023-09-18T05:46:47;93193.28;;;15.10;97.19
12471;BME280;36499;46.484;13.832;2023-09-18T05:49:15;93194.78;;;15.23;96.24
12471;BME280;36499;46.484;13.832;2023-09-18T05:51:42;93191.91;;;15.24;96.05
12471;BME280;36499;46.484;13.832;2023-09-18T05:54:09;93188.66;;;15.34;96.21
12471;BME280;36499;46.484;13.832;2023-09-18T05:56:36;93183.66;;;15.32;96.56
12471;BME280;36499;46.484;13.832;2023-09-18T05:59:04;93177.50;;;15.44;96.27
12471;BME280;36499;46.484;13.832;2023-09-18T06:01:32;93177.19;;;15.57;95.44
12471;BME280;36499;46.484;13.832;2023-09-18T06:03:59;93192.78;;;15.47;95.78
12471;BME280;36499;46.484;13.832;2023-09-18T06:06:29;93190.03;;;15.53;95.51
12471;BME280;36499;46.484;13.832;2023-09-18T06:08:56;93173.38;;;15.64;95.31
12471;BME280;36499;46.484;13.832;2023-09-18T06:11:23;93170.09;;;15.74;95.09
12471;BME280;36499;46.484;13.832;2023-09-18T06:13:50;93171.53;;;15.81;94.49
12471;BME280;36499;46.484;13.832;2023-09-18T06:16:17;93172.94;;;15.89;95.01
12471;BME280;36499;46.484;13.832;2023-09-18T06:18:46;93171.25;;;16.00;94.51
12471;BME280;36499;46.484;13.832;2023-09-18T06:21:13;93165.31;;;16.09;93.62
12471;BME280;36499;46.484;13.832;2023-09-18T06:23:40;93173.56;;;16.18;93.91
12471;BME280;36499;46.484;13.832;2023-09-18T06:26:07;93170.03;;;16.29;93.67
12471;BME280;36499;46.484;13.832;2023-09-18T06:28:34;93160.97;;;16.42;93.64
12471;BME280;36499;46.484;13.832;2023-09-18T06:31:01;93150.25;;;16.48;92.78
12471;BME280;36499;46.484;13.832;2023-09-18T06:33:28;93154.41;;;16.44;91.94
12471;BME280;36499;46.484;13.832;2023-09-18T06:35:57;93179.94;;;16.44;92.56
12471;BME280;36499;46.484;13.832;2023-09-18T06:38:24;93184.63;;;16.58;93.07
12471;BME280;36499;46.484;13.832;2023-09-18T06:40:51;93181.50;;;16.61;92.42
12471;BME280;36499;46.484;13.832;2023-09-18T06:43:21;93176.97;;;16.57;92.34
12471;BME280;36499;46.484;13.832;2023-09-18T06:45:48;93182.19;;;16.78;91.76
12471;BME280;36499;46.484;13.832;2023-09-18T06:48:15;93195.53;;;16.94;91.71
12471;BME280;36499;46.484;13.832;2023-09-18T06:50:43;93200.34;;;17.02;90.76
12471;BME280;36499;46.484;13.832;2023-09-18T06:53:11;93216.16;;;17.02;90.55
12471;BME280;36499;46.484;13.832;2023-09-18T06:55:38;93212.84;;;17.11;90.70
12471;BME280;36499;46.484;13.832;2023-09-18T06:58:05;93213.97;;;17.20;90.25
12471;BME280;36499;46.484;13.832;2023-09-18T07:00:32;93222.44;;;17.27;90.01
12471;BME280;36499;46.484;13.832;2023-09-18T07:02:59;93220.63;;;17.28;89.94
12471;BME280;36499;46.484;13.832;2023-09-18T07:05:26;93225.66;;;17.30;89.39
12471;BME280;36499;46.484;13.832;2023-09-18T07:07:53;93227.03;;;17.37;89.83
12471;BME280;36499;46.484;13.832;2023-09-18T07:10:21;93238.97;;;17.45;89.63
12471;BME280;36499;46.484;13.832;2023-09-18T07:12:49;93227.81;;;17.64;90.19
12471;BME280;36499;46.484;13.832;2023-09-18T07:15:16;93233.59;;;17.98;91.09
12471;BME280;36499;46.484;13.832;2023-09-18T07:17:43;93220.59;;;18.29;91.04
12471;BME280;36499;46.484;13.832;2023-09-18T07:20:11;93216.81;;;18.56;89.62
12471;BME280;36499;46.484;13.832;2023-09-18T07:22:45;93205.50;;;18.71;87.46
12471;BME280;36499;46.484;13.832;2023-09-18T07:25:12;93204.16;;;18.68;86.10
12471;BME280;36499;46.484;13.832;2023-09-18T07:27:41;93204.97;;;18.64;85.90
12471;BME280;36499;46.484;13.832;2023-09-18T07:30:11;93205.69;;;18.54;85.57
12471;BME280;36499;46.484;13.832;2023-09-18T07:32:40;93206.44;;;18.50;85.49
12471;BME280;36499;46.484;13.832;2023-09-18T07:35:08;93198.75;;;18.43;84.04
12471;BME280;36499;46.484;13.832;2023-09-18T07:37:36;93197.66;;;18.34;84.19
12471;BME280;36499;46.484;13.832;2023-09-18T07:40:05;93206.88;;;18.32;84.96
12471;BME280;36499;46.484;13.832;2023-09-18T07:42:32;93203.78;;;18.45;85.56
12471;BME280;36499;46.484;13.832;2023-09-18T07:45:02;93208.84;;;18.51;84.92
12471;BME280;36499;46.484;13.832;2023-09-18T07:47:29;93207.59;;;18.64;83.90
12471;BME280;36499;46.484;13.832;2023-09-18T07:49:57;93203.91;;;18.70;83.23
12471;BME280;36499;46.484;13.832;2023-09-18T07:52:24;93201.31;;;18.85;82.78
12471;BME280;36499;46.484;13.832;2023-09-18T07:54:51;93195.59;;;19.13;84.92
12471;BME280;36499;46.484;13.832;2023-09-18T07:57:18;93195.06;;;19.37;83.23
12471;BME280;36499;46.484;13.832;2023-09-18T07:59:46;93193.25;;;19.52;82.01
12471;BME280;36499;46.484;13.832;2023-09-18T08:02:14;93194.31;;;19.61;80.67
12471;BME280;36499;46.484;13.832;2023-09-18T08:04:43;93186.09;;;19.68;80.89
12471;BME280;36499;46.484;13.832;2023-09-18T08:07:10;93192.72;;;19.76;80.35
12471;BME280;36499;46.484;13.832;2023-09-18T08:09:38;93185.31;;;19.78;80.09
12471;BME280;36499;46.484;13.832;2023-09-18T08:12:07;93185.03;;;19.89;79.61
12471;BME280;36499;46.484;13.832;2023-09-18T08:14:34;93190.06;;;19.91;78.65
12471;BME280;36499;46.484;13.832;2023-09-18T08:17:02;93188.75;;;19.93;78.23
12471;BME280;36499;46.484;13.832;2023-09-18T08:19:31;93195.59;;;19.94;77.75
12471;BME280;36499;46.484;13.832;2023-09-18T08:21:59;93191.38;;;20.03;78.11
12471;BME280;36499;46.484;13.832;2023-09-18T08:24:26;93191.34;;;20.13;77.92
12471;BME280;36499;46.484;13.832;2023-09-18T08:26:53;93202.19;;;20.17;77.04
12471;BME280;36499;46.484;13.832;2023-09-18T08:29:21;93194.50;;;20.26;77.28
12471;BME280;36499;46.484;13.832;2023-09-18T08:31:49;93193.44;;;20.27;77.21
12471;BME280;36499;46.484;13.832;2023-09-18T08:34:17;93199.53;;;20.32;76.65
12471;BME280;36499;46.484;13.832;2023-09-18T08:36:45;93194.75;;;20.39;77.00
12471;BME280;36499;46.484;13.832;2023-09-18T08:39:12;93202.13;;;20.47;76.48
12471;BME280;36499;46.484;13.832;2023-09-18T08:41:44;93199.72;;;20.56;76.57
12471;BME280;36499;46.484;13.832;2023-09-18T08:44:15;93188.31;;;20.66;76.42
12471;BME280;36499;46.484;13.832;2023-09-18T08:46:42;93195.66;;;20.84;76.18
12471;BME280;36499;46.484;13.832;2023-09-18T08:49:11;93183.13;;;20.94;75.54
12471;BME280;36499;46.484;13.832;2023-09-18T08:51:39;93184.16;;;20.98;73.75
12471;BME280;36499;46.484;13.832;2023-09-18T08:54:09;93179.13;;;21.02;74.21
12471;BME280;36499;46.484;13.832;2023-09-18T08:56:36;93174.31;;;21.04;73.37
12471;BME280;36499;46.484;13.832;2023-09-18T08:59:04;93184.16;;;21.03;73.44
12471;BME280;36499;46.484;13.832;2023-09-18T09:01:31;93184.66;;;21.05;74.41
12471;BME280;36499;46.484;13.832;2023-09-18T09:03:58;93175.09;;;21.10;73.36
12471;BME280;36499;46.484;13.832;2023-09-18T09:06:26;93183.03;;;21.10;74.49
12471;BME280;36499;46.484;13.832;2023-09-18T09:08:53;93187.28;;;21.16;74.55
12471;BME280;36499;46.484;13.832;2023-09-18T09:11:21;93186.75;;;21.08;74.13
12471;BME280;36499;46.484;13.832;2023-09-18T09:14:10;93180.66;;;21.08;74.07
12471;BME280;36499;46.484;13.832;2023-09-18T09:16:46;93180.41;;;21.04;74.76
12471;BME280;36499;46.484;13.832;2023-09-18T09:19:15;93169.78;;;21.10;75.14
12471;BME280;36499;46.484;13.832;2023-09-18T09:21:43;93173.78;;;21.12;75.69
12471;BME280;36499;46.484;13.832;2023-09-18T09:24:11;93175.09;;;21.15;75.80
12471;BME280;36499;46.484;13.832;2023-09-18T09:26:41;93168.44;;;21.17;75.50
12471;BME280;36499;46.484;13.832;2023-09-18T09:29:16;93172.94;;;21.22;74.60
12471;BME280;36499;46.484;13.832;2023-09-18T09:31:44;93168.91;;;21.29;74.49
12471;BME280;36499;46.484;13.832;2023-09-18T09:34:12;93170.44;;;21.35;74.20
12471;BME280;36499;46.484;13.832;2023-09-18T09:36:54;93156.59;;;21.43;75.05
12471;BME280;36499;46.484;13.832;2023-09-18T09:39:22;93154.13;;;21.52;74.44
12471;BME280;36499;46.484;13.832;2023-09-18T09:41:52;93149.75;;;21.66;74.05
12471;BME280;36499;46.484;13.832;2023-09-18T09:44:20;93151.72;;;21.84;74.25
12471;BME280;36499;46.484;13.832;2023-09-18T09:46:48;93148.94;;;21.99;73.84
12471;BME280;36499;46.484;13.832;2023-09-18T09:49:16;93146.94;;;22.15;72.69
12471;BME280;36499;46.484;13.832;2023-09-18T09:51:45;93140.28;;;22.18;72.30
12471;BME280;36499;46.484;13.832;2023-09-18T09:54:12;93140.38;;;22.31;71.45
12471;BME280;36499;46.484;13.832;2023-09-18T09:56:45;93150.50;;;22.53;70.80
12471;BME280;36499;46.484;13.832;2023-09-18T09:59:16;93150.66;;;22.62;69.02
12471;BME280;36499;46.484;13.832;2023-09-18T10:01:47;93155.53;;;22.78;71.84
12471;BME280;36499;46.484;13.832;2023-09-18T10:04:18;93145.78;;;22.92;70.00
12471;BME280;36499;46.484;13.832;2023-09-18T10:06:52;93139.00;;;22.81;69.09
12471;BME280;36499;46.484;13.832;2023-09-18T10:09:26;93137.63;;;22.84;69.96
12471;BME280;36499;46.484;13.832;2023-09-18T10:11:56;93125.34;;;22.88;69.13
12471;BME280;36499;46.484;13.832;2023-09-18T10:14:30;93131.63;;;22.97;69.05
12471;BME280;36499;46.484;13.832;2023-09-18T10:17:06;93123.91;;;22.95;67.37
12471;BME280;36499;46.484;13.832;2023-09-18T10:19:45;93125.00;;;22.94;67.00
12471;BME280;36499;46.484;13.832;2023-09-18T10:22:29;93127.22;;;22.87;68.44
12471;BME280;36499;46.484;13.832;2023-09-18T10:25:11;93125.78;;;22.76;68.34
12471;BME280;36499;46.484;13.832;2023-09-18T10:27:41;93122.41;;;22.71;69.26
12471;BME280;36499;46.484;13.832;2023-09-18T10:30:12;93118.19;;;22.88;68.86
12471;BME280;36499;46.484;13.832;2023-09-18T10:32:41;93117.19;;;22.61;69.19
12471;BME280;36499;46.484;13.832;2023-09-18T10:35:09;93111.53;;;22.67;69.14
12471;BME280;36499;46.484;13.832;2023-09-18T10:37:38;93121.66;;;22.65;68.56
12471;BME280;36499;46.484;13.832;2023-09-18T10:40:08;93100.31;;;22.52;68.86
12471;BME280;36499;46.484;13.832;2023-09-18T10:42:37;93087.34;;;22.45;69.88
12471;BME280;36499;46.484;13.832;2023-09-18T10:45:07;93087.22;;;22.55;69.19
12471;BME280;36499;46.484;13.832;2023-09-18T10:47:39;93078.31;;;22.46;69.76
12471;BME280;36499;46.484;13.832;2023-09-18T10:50:08;93075.50;;;22.56;70.02
12471;BME280;36499;46.484;13.832;2023-09-18T10:52:42;93067.84;;;22.55;70.29
12471;BME280;36499;46.484;13.832;2023-09-18T10:55:12;93036.22;;;22.53;70.12
12471;BME280;36499;46.484;13.832;2023-09-18T10:57:50;93038.66;;;22.31;70.79
12471;BME280;36499;46.484;13.832;2023-09-18T11:00:18;93045.19;;;22.57;70.49
12471;BME280;36499;46.484;13.832;2023-09-18T11:02:51;93026.81;;;22.42;70.35
12471;BME280;36499;46.484;13.832;2023-09-18T11:05:32;93030.25;;;22.61;70.43
12471;BME280;36499;46.484;13.832;2023-09-18T11:08:29;93027.53;;;22.66;69.99
12471;BME280;36499;46.484;13.832;2023-09-18T11:11:06;93041.25;;;22.55;69.49
12471;BME280;36499;46.484;13.832;2023-09-18T11:13:39;93044.56;;;22.65;69.87
12471;BME280;36499;46.484;13.832;2023-09-18T11:16:34;93019.91;;;22.41;70.47
12471;BME280;36499;46.484;13.832;2023-09-18T11:19:16;93026.66;;;22.33;71.68
12471;BME280;36499;46.484;13.832;2023-09-18T11:21:46;93040.03;;;22.47;71.59
12471;BME280;36499;46.484;13.832;2023-09-18T11:24:19;93014.94;;;22.34;71.81
12471;BME280;36499;46.484;13.832;2023-09-18T11:26:50;93018.44;;;22.11;72.70
12471;BME280;36499;46.484;13.832;2023-09-18T11:29:22;93023.00;;;22.29;73.24
12471;BME280;36499;46.484;13.832;2023-09-18T11:31:54;92997.31;;;22.25;72.80
12471;BME280;36499;46.484;13.832;2023-09-18T11:34:25;93011.09;;;22.45;72.22
12471;BME280;36499;46.484;13.832;2023-09-18T11:36:54;93000.44;;;22.64;71.88
12471;BME280;36499;46.484;13.832;2023-09-18T11:39:35;93032.16;;;22.79;72.98
12471;BME280;36499;46.484;13.832;2023-09-18T11:42:08;92981.16;;;23.10;70.49
12471;BME280;36499;46.484;13.832;2023-09-18T11:44:36;92973.09;;;23.15;69.66
12471;BME280;36499;46.484;13.832;2023-09-18T11:47:09;92995.25;;;23.56;68.34
12471;BME280;36499;46.484;13.832;2023-09-18T11:49:47;92990.06;;;23.92;69.23
12471;BME280;36499;46.484;13.832;2023-09-18T11:52:19;92958.56;;;24.21;67.60
12471;BME280;36499;46.484;13.832;2023-09-18T11:54:48;92981.44;;;24.36;65.63
12471;BME280;36499;46.484;13.832;2023-09-18T11:57:17;92974.84;;;24.20;66.07
12471;BME280;36499;46.484;13.832;2023-09-18T11:59:45;92966.84;;;24.20;65.15
12471;BME280;36499;46.484;13.832;2023-09-18T12:02:12;92975.53;;;24.12;65.33
12471;BME280;36499;46.484;13.832;2023-09-18T12:04:47;92966.19;;;23.87;65.74
12471;BME280;36499;46.484;13.832;2023-09-18T12:07:15;92961.38;;;23.62;68.19
12471;BME280;36499;46.484;13.832;2023-09-18T12:09:43;92988.00;;;23.62;68.75
12471;BME280;36499;46.484;13.832;2023-09-18T12:12:11;92980.50;;;23.77;67.71
12471;BME280;36499;46.484;13.832;2023-09-18T12:14:40;92985.91;;;23.72;67.03
12471;BME280;36499;46.484;13.832;2023-09-18T12:17:08;93004.25;;;23.60;68.00
12471;BME280;36499;46.484;13.832;2023-09-18T12:19:35;92958.53;;;23.26;68.91
12471;BME280;36499;46.484;13.832;2023-09-18T12:22:04;92973.53;;;23.03;68.89
12471;BME280;36499;46.484;13.832;2023-09-18T12:24:31;92969.69;;;22.95;70.12
12471;BME280;36499;46.484;13.832;2023-09-18T12:26:58;93003.66;;;22.99;69.97
12471;BME280;36499;46.484;13.832;2023-09-18T12:29:26;92990.13;;;22.81;70.59
12471;BME280;36499;46.484;13.832;2023-09-18T12:31:53;92956.59;;;22.48;71.94
12471;BME280;36499;46.484;13.832;2023-09-18T12:34:21;92966.53;;;22.56;72.57
12471;BME280;36499;46.484;13.832;2023-09-18T12:36:50;92966.13;;;22.86;69.55
12471;BME280;36499;46.484;13.832;2023-09-18T12:39:20;92970.59;;;22.72;69.56
12471;BME280;36499;46.484;13.832;2023-09-18T12:41:48;92927.66;;;22.28;73.37
12471;BME280;36499;46.484;13.832;2023-09-18T12:44:15;92958.28;;;22.76;68.27
12471;BME280;36499;46.484;13.832;2023-09-18T12:46:44;92931.66;;;22.95;71.46
12471;BME280;36499;46.484;13.832;2023-09-18T12:49:17;92903.88;;;22.87;72.82
12471;BME280;36499;46.484;13.832;2023-09-18T12:51:53;92894.53;;;22.90;69.36
12471;BME280;36499;46.484;13.832;2023-09-18T12:54:35;92908.66;;;23.18;70.10
12471;BME280;36499;46.484;13.832;2023-09-18T12:57:05;92918.41;;;23.09;70.40
12471;BME280;36499;46.484;13.832;2023-09-18T12:59:33;92916.53;;;23.09;70.05